createdAt,value
2023-03-07T00:00:52.876Z,0.49
2023-03-07T00:03:25.283Z,0.49
2023-03-07T00:06:06.085Z,0.50
2023-03-07T00:08:38.985Z,0.50
2023-03-07T00:11:11.964Z,0.49
2023-03-07T00:13:44.326Z,0.49
2023-03-07T00:16:18.678Z,0.47
2023-03-07T00:18:51.522Z,0.44
2023-03-07T00:21:24.213Z,0.37
2023-03-07T00:23:57.261Z,0.41
2023-03-07T00:26:30.650Z,0.42
2023-03-07T00:29:04.240Z,0.37
2023-03-07T00:31:37.211Z,0.36
2023-03-07T00:34:09.529Z,0.34
2023-03-07T00:36:41.904Z,0.32
2023-03-07T00:39:14.370Z,0.30
2023-03-07T00:41:46.633Z,0.30
2023-03-07T00:44:18.763Z,0.29
2023-03-07T00:46:51.135Z,0.27
2023-03-07T00:49:24.252Z,0.25
2023-03-07T00:51:57.153Z,0.24
2023-03-07T00:54:30.045Z,0.21
2023-03-07T00:57:02.150Z,0.19
2023-03-07T00:59:34.723Z,0.20
2023-03-07T01:02:06.837Z,0.19
2023-03-07T01:04:39.442Z,0.19
2023-03-07T01:07:11.585Z,0.18
2023-03-07T01:09:43.885Z,0.19
2023-03-07T01:12:16.469Z,0.20
2023-03-07T01:14:51.222Z,0.19
2023-03-07T01:17:24.176Z,0.19
2023-03-07T01:19:58.098Z,0.17
2023-03-07T01:22:39.082Z,0.17
2023-03-07T01:25:16.092Z,0.16
2023-03-07T01:27:48.522Z,0.15
2023-03-07T01:30:20.972Z,0.16
2023-03-07T01:32:58.236Z,0.16
2023-03-07T01:35:31.877Z,0.16
2023-03-07T01:38:04.087Z,0.18
2023-03-07T01:40:36.210Z,0.21
2023-03-07T01:43:26.734Z,0.17
2023-03-07T01:46:42.129Z,0.17
2023-03-07T01:49:17.344Z,0.17
2023-03-07T01:51:54.050Z,0.15
2023-03-07T01:54:27.396Z,0.18
2023-03-07T01:57:01.002Z,0.14
2023-03-07T01:59:36.944Z,0.17
2023-03-07T02:02:12.808Z,0.18
2023-03-07T02:04:50.059Z,0.18
2023-03-07T02:07:26.692Z,0.19
2023-03-07T02:09:59.962Z,0.20
2023-03-07T02:12:32.731Z,0.19
2023-03-07T02:15:09.569Z,0.14
2023-03-07T02:17:42.565Z,0.16
2023-03-07T02:20:32.112Z,0.17
2023-03-07T02:23:06.285Z,0.17
2023-03-07T02:25:43.792Z,0.18
2023-03-07T02:28:19.536Z,0.19
2023-03-07T02:31:00.226Z,0.21
2023-03-07T02:33:35.329Z,0.20
2023-03-07T02:36:14.412Z,0.21
2023-03-07T02:38:54.749Z,0.22
2023-03-07T02:41:33.878Z,0.22
2023-03-07T02:44:09.087Z,0.22
2023-03-07T02:46:41.398Z,0.23
2023-03-07T02:49:13.704Z,0.23
2023-03-07T02:51:45.730Z,0.22
2023-03-07T02:54:19.306Z,0.21
2023-03-07T02:56:51.808Z,0.22
2023-03-07T02:59:24.303Z,0.23
2023-03-07T03:01:57.052Z,0.25
2023-03-07T03:04:29.507Z,0.26
2023-03-07T03:07:01.826Z,0.24
2023-03-07T03:09:35.503Z,0.26
2023-03-07T03:12:10.044Z,0.30
2023-03-07T03:14:42.506Z,0.29
2023-03-07T03:17:14.654Z,0.29
2023-03-07T03:19:47.376Z,0.30
2023-03-07T03:22:21.546Z,0.31
2023-03-07T03:24:54.536Z,0.31
2023-03-07T03:27:26.804Z,0.28
2023-03-07T03:29:59.293Z,0.26
2023-03-07T03:32:32.064Z,0.26
2023-03-07T03:35:05.238Z,0.27
2023-03-07T03:37:37.444Z,0.25
2023-03-07T03:40:14.909Z,0.24
2023-03-07T03:42:48.103Z,0.22
2023-03-07T03:45:23.803Z,0.22
2023-03-07T03:47:56.053Z,0.22
2023-03-07T03:50:29.360Z,0.23
2023-03-07T03:53:01.603Z,0.24
2023-03-07T03:55:34.020Z,0.26
2023-03-07T03:58:06.685Z,0.28
2023-03-07T04:00:39.212Z,0.28
2023-03-07T04:03:11.480Z,0.29
2023-03-07T04:05:44.130Z,0.30
2023-03-07T04:08:16.610Z,0.32
2023-03-07T04:10:49.021Z,0.33
2023-03-07T04:13:21.410Z,0.34
2023-03-07T04:15:56.132Z,0.35
2023-03-07T04:18:30.448Z,0.36
2023-03-07T04:21:03.035Z,0.35
2023-03-07T04:23:36.087Z,0.38
2023-03-07T04:26:10.791Z,0.37
2023-03-07T04:28:49.697Z,0.38
2023-03-07T04:31:30.426Z,0.40
2023-03-07T04:34:05.132Z,0.37
2023-03-07T04:36:37.482Z,0.36
2023-03-07T04:39:09.650Z,0.36
2023-03-07T04:41:42.329Z,0.33
2023-03-07T04:44:22.736Z,0.37
2023-03-07T04:46:54.840Z,0.37
2023-03-07T04:49:27.165Z,0.36
2023-03-07T04:51:59.454Z,0.34
2023-03-07T04:54:32.662Z,0.30
2023-03-07T04:57:06.780Z,0.31
2023-03-07T04:59:40.479Z,0.29
2023-03-07T05:02:15.139Z,0.29
2023-03-07T05:04:48.209Z,0.30
2023-03-07T05:07:20.835Z,0.29
2023-03-07T05:09:53.134Z,0.34
2023-03-07T05:12:27.840Z,0.37
2023-03-07T05:15:01.461Z,0.37
2023-03-07T05:17:35.076Z,0.38
2023-03-07T05:20:10.927Z,0.33
2023-03-07T05:22:43.828Z,0.35
2023-03-07T05:25:16.868Z,0.34
2023-03-07T05:27:50.532Z,0.32
2023-03-07T05:30:23.506Z,0.41
2023-03-07T05:32:57.562Z,0.43
2023-03-07T05:35:30.489Z,0.46
2023-03-07T05:38:04.554Z,0.50
2023-03-07T05:40:37.360Z,0.51
2023-03-07T05:43:10.180Z,0.51
2023-03-07T05:45:42.553Z,0.52
2023-03-07T05:48:14.667Z,0.52
2023-03-07T05:50:47.241Z,0.57
2023-03-07T05:53:21.090Z,0.61
2023-03-07T05:55:54.239Z,0.61
2023-03-07T05:58:27.018Z,0.61
2023-03-07T06:00:59.468Z,0.62
2023-03-07T06:03:31.711Z,0.66
2023-03-07T06:06:03.925Z,0.65
2023-03-07T06:08:37.788Z,0.76
2023-03-07T06:11:08.244Z,0.74
2023-03-07T06:13:42.101Z,0.75
2023-03-07T06:16:14.311Z,0.79
2023-03-07T06:18:47.016Z,0.81
2023-03-07T06:21:20.851Z,0.87
2023-03-07T06:23:54.241Z,0.90
2023-03-07T06:26:27.859Z,0.97
2023-03-07T06:28:58.695Z,1.01
2023-03-07T06:31:31.244Z,1.03
2023-03-07T06:34:04.781Z,1.07
2023-03-07T06:36:37.169Z,1.16
2023-03-07T06:39:09.721Z,1.24
2023-03-07T06:41:41.582Z,1.18
2023-03-07T06:44:17.442Z,1.23
2023-03-07T06:46:49.974Z,1.36
2023-03-07T06:49:24.443Z,1.44
2023-03-07T06:51:57.371Z,1.60
2023-03-07T06:54:29.632Z,1.68
2023-03-07T06:57:01.980Z,1.78
2023-03-07T06:59:34.610Z,1.90
2023-03-07T07:02:08.232Z,2.08
2023-03-07T07:04:41.413Z,2.16
2023-03-07T07:07:14.414Z,2.28
2023-03-07T07:09:47.012Z,2.48
2023-03-07T07:12:20.425Z,2.55
2023-03-07T07:14:52.952Z,2.48
2023-03-07T07:17:25.647Z,2.43
2023-03-07T07:19:58.148Z,2.41
2023-03-07T07:22:31.848Z,2.44
2023-03-07T07:25:04.728Z,2.49
2023-03-07T07:27:38.333Z,2.60
2023-03-07T07:30:14.351Z,2.74
2023-03-07T07:32:46.961Z,2.91
2023-03-07T07:35:20.150Z,3.02
2023-03-07T07:37:52.968Z,3.12
2023-03-07T07:40:25.895Z,3.30
2023-03-07T07:42:58.395Z,3.40
2023-03-07T07:45:38.745Z,3.52
2023-03-07T07:48:11.820Z,3.67
2023-03-07T07:50:44.600Z,3.78
2023-03-07T07:53:18.416Z,3.88
2023-03-07T07:55:50.899Z,3.85
2023-03-07T07:58:23.294Z,3.95
2023-03-07T08:00:55.795Z,4.01
2023-03-07T08:03:29.076Z,4.20
2023-03-07T08:06:14.137Z,4.39
2023-03-07T08:08:49.852Z,4.44
2023-03-07T08:11:24.902Z,4.43
2023-03-07T08:13:57.565Z,4.53
2023-03-07T08:16:29.701Z,4.46
2023-03-07T08:19:02.739Z,4.49
2023-03-07T08:21:38.285Z,4.51
2023-03-07T08:24:10.793Z,4.61
2023-03-07T08:26:44.488Z,4.62
2023-03-07T08:29:17.526Z,4.65
2023-03-07T08:31:52.220Z,4.79
2023-03-07T08:34:25.050Z,4.89
2023-03-07T08:36:57.378Z,5.08
2023-03-07T08:39:40.238Z,5.14
2023-03-07T08:42:12.495Z,5.11
2023-03-07T08:44:44.873Z,5.15
2023-03-07T08:47:17.569Z,5.25
2023-03-07T08:49:49.869Z,5.24
2023-03-07T08:52:22.560Z,5.28
2023-03-07T08:54:55.467Z,5.43
2023-03-07T08:57:28.074Z,5.49
2023-03-07T09:00:00.478Z,5.51
2023-03-07T09:02:32.753Z,5.60
2023-03-07T09:05:05.301Z,5.57
2023-03-07T09:07:39.720Z,5.63
2023-03-07T09:10:13.780Z,5.66
2023-03-07T09:12:46.993Z,5.73
2023-03-07T09:15:19.315Z,5.71
2023-03-07T09:17:52.602Z,5.77
2023-03-07T09:20:25.343Z,5.74
2023-03-07T09:22:57.762Z,5.92
2023-03-07T09:25:30.772Z,5.88
2023-03-07T09:28:04.843Z,5.97
2023-03-07T09:30:40.341Z,6.03
2023-03-07T09:33:13.249Z,6.16
2023-03-07T09:35:45.361Z,6.29
2023-03-07T09:38:18.031Z,6.38
2023-03-07T09:40:51.183Z,6.20
2023-03-07T09:43:24.587Z,6.15
2023-03-07T09:46:30.702Z,6.21
2023-03-07T09:49:18.602Z,6.21
2023-03-07T09:51:56.578Z,6.27
2023-03-07T09:54:37.706Z,6.24
2023-03-07T09:57:18.955Z,6.37
2023-03-07T09:59:53.909Z,6.47
2023-03-07T10:02:33.246Z,6.47
2023-03-07T10:05:13.146Z,6.33
2023-03-07T10:07:45.849Z,6.42
2023-03-07T10:10:24.241Z,6.37
2023-03-07T10:13:10.926Z,6.16
2023-03-07T10:15:47.845Z,6.12
2023-03-07T10:18:58.486Z,6.24
2023-03-07T10:21:40.536Z,6.31
2023-03-07T10:24:38.376Z,6.25
2023-03-07T10:27:13.037Z,6.09
2023-03-07T10:29:50.003Z,6.13
2023-03-07T10:32:31.444Z,6.33
2023-03-07T10:35:15.371Z,6.27
2023-03-07T10:37:52.017Z,6.20
2023-03-07T10:40:30.528Z,6.12
2023-03-07T10:43:04.859Z,6.17
2023-03-07T10:45:38.255Z,6.33
2023-03-07T10:48:17.816Z,6.43
2023-03-07T10:50:58.368Z,6.34
2023-03-07T10:53:34.220Z,6.19
2023-03-07T10:56:18.299Z,6.19
2023-03-07T10:59:09.721Z,6.12
2023-03-07T11:01:56.675Z,5.86
2023-03-07T11:04:45.935Z,5.73
2023-03-07T11:07:31.253Z,5.68
2023-03-07T11:10:24.563Z,5.58
2023-03-07T11:12:59.788Z,5.33
2023-03-07T11:15:32.841Z,5.26
2023-03-07T11:18:08.099Z,5.19
2023-03-07T11:20:53.237Z,5.18
2023-03-07T11:23:28.289Z,5.25
2023-03-07T11:26:28.917Z,5.19
2023-03-07T11:29:11.349Z,5.24
2023-03-07T11:31:54.074Z,5.31
2023-03-07T11:34:39.909Z,5.34
2023-03-07T11:37:29.605Z,5.52
2023-03-07T11:40:24.985Z,5.83
2023-03-07T11:43:07.103Z,5.88
2023-03-07T11:45:49.139Z,5.91
2023-03-07T11:48:45.836Z,5.86
2023-03-07T11:51:38.187Z,5.72
2023-03-07T11:54:20.914Z,5.61
2023-03-07T11:56:57.571Z,5.66
2023-03-07T11:59:50.621Z,5.83
2023-03-07T12:02:51.039Z,5.87
2023-03-07T12:05:45.325Z,5.66
2023-03-07T12:08:29.192Z,5.66
2023-03-07T12:11:14.568Z,5.52
2023-03-07T12:13:57.970Z,5.53
2023-03-07T12:16:42.454Z,5.56
2023-03-07T12:19:42.627Z,5.57
2023-03-07T12:22:30.528Z,5.64
2023-03-07T12:25:25.128Z,5.64
2023-03-07T12:28:11.612Z,5.76
2023-03-07T12:30:58.356Z,5.77
2023-03-07T12:33:48.686Z,5.73
2023-03-07T12:36:29.265Z,5.73
2023-03-07T12:39:07.337Z,5.78
2023-03-07T12:41:54.370Z,5.74
2023-03-07T12:44:35.112Z,5.62
2023-03-07T12:47:17.961Z,5.72
2023-03-07T12:50:01.892Z,5.80
2023-03-07T12:52:41.365Z,5.80
2023-03-07T12:55:25.450Z,5.82
2023-03-07T12:58:09.205Z,5.85
2023-03-07T13:00:48.903Z,5.77
2023-03-07T13:03:31.140Z,5.79
2023-03-07T13:06:05.020Z,5.80
2023-03-07T13:08:38.082Z,5.90
2023-03-07T13:11:18.466Z,5.94
2023-03-07T13:13:57.468Z,5.83
2023-03-07T13:16:44.905Z,5.91
2023-03-07T13:19:52.867Z,5.91
2023-03-07T13:23:02.437Z,6.08
2023-03-07T13:25:59.863Z,6.12
2023-03-07T13:28:44.948Z,6.11
2023-03-07T13:31:46.654Z,6.17
2023-03-07T13:34:51.886Z,6.16
2023-03-07T13:37:57.489Z,6.18
2023-03-07T13:40:59.371Z,6.18
2023-03-07T13:44:02.281Z,6.19
2023-03-07T13:46:48.591Z,6.17
2023-03-07T13:49:45.075Z,6.19
2023-03-07T13:52:30.805Z,6.24
2023-03-07T13:55:05.979Z,6.16
2023-03-07T13:57:44.959Z,6.17
2023-03-07T14:00:29.167Z,6.15
2023-03-07T14:03:02.205Z,6.18
2023-03-07T14:05:38.236Z,6.17
2023-03-07T14:08:19.285Z,6.22
2023-03-07T14:10:52.622Z,6.24
2023-03-07T14:13:43.827Z,6.29
2023-03-07T14:16:32.748Z,6.31
2023-03-07T14:19:20.904Z,6.34
2023-03-07T14:22:01.289Z,6.35
2023-03-07T14:24:52.488Z,6.27
2023-03-07T14:27:28.034Z,6.23
2023-03-07T14:30:00.607Z,6.24
2023-03-07T14:32:36.052Z,6.21
2023-03-07T14:35:15.668Z,6.15
2023-03-07T14:37:48.377Z,6.11
2023-03-07T14:40:38.457Z,6.10
2023-03-07T14:43:29.071Z,6.02
2023-03-07T14:46:15.099Z,6.04
2023-03-07T14:49:00.608Z,6.06
2023-03-07T14:51:36.545Z,6.06
2023-03-07T14:54:15.298Z,6.05
2023-03-07T14:56:47.977Z,6.03
2023-03-07T14:59:28.635Z,6.06
2023-03-07T15:02:01.819Z,6.05
2023-03-07T15:04:36.054Z,6.03
2023-03-07T15:07:11.744Z,6.10
2023-03-07T15:09:44.066Z,6.02
2023-03-07T15:12:24.536Z,6.05
2023-03-07T15:14:59.936Z,6.03
2023-03-07T15:17:36.873Z,6.00
2023-03-07T15:20:15.347Z,6.05
2023-03-07T15:22:48.199Z,6.02
2023-03-07T15:25:26.236Z,6.03
2023-03-07T15:28:04.697Z,5.91
2023-03-07T15:30:42.608Z,5.85
2023-03-07T15:33:22.576Z,5.83
2023-03-07T15:36:18.034Z,5.83
2023-03-07T15:38:51.947Z,5.79
2023-03-07T15:41:33.927Z,5.82
2023-03-07T15:44:20.136Z,5.77
2023-03-07T15:46:58.065Z,5.73
2023-03-07T15:49:37.789Z,5.75
2023-03-07T15:52:21.878Z,5.70
2023-03-07T15:54:53.836Z,5.56
2023-03-07T15:57:28.216Z,5.49
2023-03-07T16:00:03.055Z,5.51
2023-03-07T16:02:46.802Z,5.49
2023-03-07T16:05:41.543Z,5.47
2023-03-07T16:08:16.666Z,5.33
2023-03-07T16:10:54.929Z,5.29
2023-03-07T16:13:32.401Z,5.25
2023-03-07T16:16:07.913Z,5.19
2023-03-07T16:18:40.625Z,5.16
2023-03-07T16:21:18.965Z,5.13
2023-03-07T16:23:51.753Z,5.12
2023-03-07T16:26:27.457Z,5.08
2023-03-07T16:29:01.122Z,5.06
2023-03-07T16:31:34.395Z,4.93
2023-03-07T16:34:13.941Z,4.96
2023-03-07T16:36:51.394Z,4.95
2023-03-07T16:39:25.630Z,4.87
2023-03-07T16:42:05.100Z,4.80
2023-03-07T16:44:44.663Z,4.81
2023-03-07T16:47:19.276Z,4.73
2023-03-07T16:49:51.872Z,4.70
2023-03-07T16:52:26.160Z,4.66
2023-03-07T16:54:59.259Z,4.64
2023-03-07T16:57:31.912Z,4.60
2023-03-07T17:00:04.265Z,4.63
2023-03-07T17:02:36.939Z,4.65
2023-03-07T17:05:16.271Z,4.60
2023-03-07T17:07:49.185Z,4.53
2023-03-07T17:10:22.641Z,4.50
2023-03-07T17:12:56.630Z,4.48
2023-03-07T17:15:31.346Z,4.45
2023-03-07T17:18:04.502Z,4.49
2023-03-07T17:20:37.825Z,4.45
2023-03-07T17:23:10.145Z,4.42
2023-03-07T17:25:45.656Z,4.42
2023-03-07T17:28:20.520Z,4.34
2023-03-07T17:30:53.102Z,4.35
2023-03-07T17:33:27.013Z,4.30
2023-03-07T17:36:01.176Z,4.31
2023-03-07T17:38:33.882Z,4.35
2023-03-07T17:41:06.462Z,4.28
2023-03-07T17:43:38.773Z,4.24
2023-03-07T17:46:13.846Z,4.22
2023-03-07T17:48:46.577Z,4.17
2023-03-07T17:51:18.769Z,4.18
2023-03-07T17:53:51.063Z,4.18
2023-03-07T17:56:23.795Z,4.13
2023-03-07T17:59:01.698Z,4.19
2023-03-07T18:01:37.242Z,4.26
2023-03-07T18:04:10.753Z,4.22
2023-03-07T18:06:44.722Z,4.20
2023-03-07T18:09:18.971Z,4.19
2023-03-07T18:11:51.558Z,4.21
2023-03-07T18:14:24.349Z,4.22
2023-03-07T18:16:56.883Z,4.22
2023-03-07T18:19:29.105Z,4.20
2023-03-07T18:22:01.359Z,4.21
2023-03-07T18:24:33.786Z,4.16
2023-03-07T18:27:08.799Z,4.24
2023-03-07T18:29:41.562Z,4.17
2023-03-07T18:32:15.451Z,4.21
2023-03-07T18:34:48.572Z,4.11
2023-03-07T18:37:21.484Z,4.11
2023-03-07T18:39:54.114Z,4.05
2023-03-07T18:42:26.264Z,4.06
2023-03-07T18:44:59.020Z,4.05
2023-03-07T18:47:31.356Z,4.03
2023-03-07T18:50:03.953Z,4.09
2023-03-07T18:52:36.586Z,4.04
2023-03-07T18:55:10.832Z,4.01
2023-03-07T18:57:44.935Z,3.96
2023-03-07T19:00:18.565Z,3.94
2023-03-07T19:02:50.696Z,3.93
2023-03-07T19:05:22.865Z,3.88
2023-03-07T19:07:55.992Z,3.87
2023-03-07T19:10:28.386Z,3.84
2023-03-07T19:13:01.345Z,3.73
2023-03-07T19:15:34.194Z,3.76
2023-03-07T19:18:06.821Z,3.76
2023-03-07T19:20:43.051Z,3.79
2023-03-07T19:23:15.359Z,3.78
2023-03-07T19:25:47.472Z,3.82
2023-03-07T19:28:19.698Z,3.79
2023-03-07T19:30:54.101Z,3.79
2023-03-07T19:33:31.522Z,3.78
2023-03-07T19:36:09.316Z,3.74
2023-03-07T19:38:42.430Z,3.72
2023-03-07T19:41:25.324Z,3.69
2023-03-07T19:43:59.085Z,3.68
2023-03-07T19:46:31.938Z,3.66
2023-03-07T19:49:04.728Z,3.61
2023-03-07T19:51:37.478Z,3.70
2023-03-07T19:54:11.157Z,3.72
2023-03-07T19:56:43.009Z,3.65
2023-03-07T19:59:16.048Z,3.56
2023-03-07T20:01:50.072Z,3.64
2023-03-07T20:04:22.610Z,3.59
2023-03-07T20:06:55.226Z,3.60
2023-03-07T20:09:27.788Z,3.64
2023-03-07T20:12:02.337Z,3.62
2023-03-07T20:14:37.450Z,3.61
2023-03-07T20:17:11.163Z,3.64
2023-03-07T20:19:44.145Z,3.69
2023-03-07T20:22:18.059Z,3.69
2023-03-07T20:24:52.691Z,3.58
2023-03-07T20:27:27.068Z,3.54
2023-03-07T20:29:59.238Z,3.54
2023-03-07T20:32:32.404Z,3.56
2023-03-07T20:35:06.640Z,3.56
2023-03-07T20:37:41.040Z,3.57
2023-03-07T20:40:17.332Z,3.58
2023-03-07T20:42:51.885Z,3.55
2023-03-07T20:45:26.841Z,3.57
2023-03-07T20:47:59.023Z,3.56
2023-03-07T20:50:31.637Z,3.60
2023-03-07T20:53:08.395Z,3.59
2023-03-07T20:55:40.866Z,3.58
2023-03-07T20:58:14.174Z,3.64
2023-03-07T21:00:47.034Z,3.58
2023-03-07T21:03:19.318Z,3.58
2023-03-07T21:05:55.337Z,3.57
2023-03-07T21:08:27.877Z,3.59
2023-03-07T21:11:05.358Z,3.66
2023-03-07T21:13:39.669Z,3.60
2023-03-07T21:16:14.488Z,3.65
2023-03-07T21:18:47.516Z,3.64
2023-03-07T21:21:21.187Z,3.64
2023-03-07T21:24:00.564Z,3.65
2023-03-07T21:26:37.051Z,3.64
2023-03-07T21:29:11.252Z,3.68
2023-03-07T21:31:43.985Z,3.71
2023-03-07T21:34:22.671Z,3.71
2023-03-07T21:36:56.583Z,3.77
2023-03-07T21:39:38.963Z,3.77
2023-03-07T21:42:11.088Z,3.78
2023-03-07T21:44:45.460Z,3.80
2023-03-07T21:47:23.881Z,3.82
2023-03-07T21:49:56.144Z,3.88
2023-03-07T21:52:29.552Z,3.85
2023-03-07T21:55:01.820Z,3.85
2023-03-07T21:57:33.909Z,3.84
2023-03-07T22:00:08.483Z,3.85
2023-03-07T22:02:40.890Z,3.85
2023-03-07T22:05:13.761Z,3.89
2023-03-07T22:07:48.402Z,3.91
2023-03-07T22:10:21.859Z,3.91
2023-03-07T22:12:53.926Z,3.88
2023-03-07T22:15:26.250Z,3.87
2023-03-07T22:17:58.825Z,3.87
2023-03-07T22:20:31.121Z,3.92
2023-03-07T22:23:03.381Z,3.94
2023-03-07T22:25:39.821Z,3.89
2023-03-07T22:28:11.908Z,3.90
2023-03-07T22:30:44.252Z,3.90
2023-03-07T22:33:16.324Z,3.91
2023-03-07T22:35:56.438Z,3.87
2023-03-07T22:38:29.395Z,3.89
2023-03-07T22:41:06.961Z,3.85
2023-03-07T22:43:39.920Z,3.83
2023-03-07T22:46:12.675Z,3.84
2023-03-07T22:48:45.227Z,3.84
2023-03-07T22:51:19.170Z,3.83
2023-03-07T22:53:52.309Z,3.83
2023-03-07T22:56:26.132Z,3.81
2023-03-07T22:58:58.485Z,3.79
2023-03-07T23:01:31.604Z,3.77
2023-03-07T23:04:06.727Z,3.75
2023-03-07T23:06:39.820Z,3.72
2023-03-07T23:09:12.366Z,3.70
2023-03-07T23:11:46.660Z,3.68
2023-03-07T23:14:19.246Z,3.73
2023-03-07T23:16:51.617Z,3.71
2023-03-07T23:19:23.841Z,3.69
2023-03-07T23:21:55.996Z,3.72
2023-03-07T23:24:28.398Z,3.73
2023-03-07T23:27:00.836Z,3.71
2023-03-07T23:29:33.617Z,3.73
2023-03-07T23:32:06.073Z,3.75
2023-03-07T23:34:38.260Z,3.77
2023-03-07T23:37:10.670Z,3.74
2023-03-07T23:39:42.890Z,3.77
2023-03-07T23:42:15.706Z,3.77
2023-03-07T23:44:49.595Z,3.77
2023-03-07T23:47:21.800Z,3.78
2023-03-07T23:49:55.697Z,3.77
2023-03-07T23:52:28.179Z,3.77
2023-03-07T23:55:00.140Z,3.78
2023-03-07T23:57:34.108Z,3.78
